Time;durP1;ratioP1;P1;durP2;ratioP2;P2;SDS_P1;SDS_P2;PMS_P1;PMS_P2;Temp;Humidity;BMP_temperature;BMP_pressure;BME280_temperature;BME280_humidity;BME280_pressure;Samples;Min_cycle;Max_cycle;Signal;HPM_P1;HPM_P2
2022/09/17 00:00:40;;;;;;;13.38;7.55;;;;;;;;;;4377189;32;67342;-63
2022/09/17 00:03:28;;;;;;;13.65;7.93;;;;;;;;;;4388012;32;60166;-64
2022/09/17 00:06:14;;;;;;;12.30;7.65;;;;;;;;;;4398282;32;69568;-64
2022/09/17 00:09:01;;;;;;;12.50;7.62;;;;;;;;;;4387334;32;69737;-63
2022/09/17 00:11:47;;;;;;;11.82;6.45;;;;;;;;;;4365782;32;68149;-63
2022/09/17 00:14:34;;;;;;;;;;;;;;;;;;4387385;32;72153;-64
2022/09/17 00:17:20;;;;;;;14.48;7.22;;;;;;;;;;4397981;32;66483;-64
2022/09/17 00:20:12;;;;;;;14.13;8.38;;;;;;;;;;4376750;32;67127;-63
2022/09/17 00:22:58;;;;;;;16.08;7.97;;;;;;;;;;4377836;32;67738;-63
2022/09/17 00:25:46;;;;;;;14.25;8.32;;;;;;;;;;4387235;32;71675;-64
2022/09/17 00:28:32;;;;;;;12.05;7.10;;;;;;;;;;4376699;32;65924;-64
2022/09/17 00:31:19;;;;;;;14.15;8.25;;;;;;;;;;4387369;32;66720;-64
2022/09/17 00:34:06;;;;;;;14.63;8.07;;;;;;;;;;4387381;32;59910;-64
2022/09/17 00:36:53;;;;;;;12.35;7.57;;;;;;;;;;4387126;32;70537;-63
2022/09/17 00:39:40;;;;;;;13.10;7.55;;;;;;;;;;4397203;32;69558;-63
2022/09/17 00:42:27;;;;;;;12.15;7.28;;;;;;;;;;4386995;32;66945;-64
2022/09/17 00:45:13;;;;;;;13.13;7.95;;;;;;;;;;4387571;32;60138;-64
2022/09/17 00:48:03;;;;;;;10.90;7.03;;;;;;;;;;4365095;32;71293;-62
2022/09/17 00:50:49;;;;;;;12.07;7.10;;;;;;;;;;4376117;32;69847;-63
2022/09/17 00:53:36;;;;;;;13.85;7.32;;;;;;;;;;4397780;32;67703;-62
2022/09/17 00:56:28;;;;;;;12.98;7.37;;;;;;;;;;4364999;32;71347;-63
2022/09/17 00:59:15;;;;;;;12.18;7.43;;;;;;;;;;4398353;32;64792;-63
2022/09/17 01:02:02;;;;;;;11.63;7.15;;;;;;;;;;4376950;32;66715;-63
2022/09/17 01:04:50;;;;;;;15.27;8.40;;;;;;;;;;4398574;32;60245;-63
2022/09/17 01:07:36;;;;;;;11.90;7.15;;;;;;;;;;4387001;32;71194;-63
2022/09/17 01:11:00;;;;;;;12.48;7.47;;;;;;;;;;4397642;32;65751;-63
2022/09/17 01:14:29;;;;;;;13.50;7.57;;;;;;;;;;4397434;32;67439;-63
2022/09/17 01:17:37;;;;;;;14.25;7.25;;;;;;;;;;4397281;32;60179;-64
2022/09/17 01:20:46;;;;;;;14.00;7.55;;;;;;;;;;4398509;32;69658;-62
2022/09/17 01:24:03;;;;;;;12.90;7.45;;;;;;;;;;4397279;32;69065;-63
2022/09/17 01:27:08;;;;;;;13.63;7.23;;;;;;;;;;4398487;32;66771;-63
2022/09/17 01:30:04;;;;;;;14.65;8.02;;;;;;;;;;4398015;32;71536;-63
2022/09/17 01:33:20;;;;;;;14.48;7.68;;;;;;;;;;4386094;32;65691;-64
2022/09/17 01:36:27;;;;;;;14.50;8.27;;;;;;;;;;4397278;32;67493;-64
2022/09/17 01:39:31;;;;;;;16.90;9.15;;;;;;;;;;4398436;32;66735;-64
2022/09/17 01:42:33;;;;;;;15.13;8.85;;;;;;;;;;4386562;32;71655;-63
2022/09/17 01:45:47;;;;;;;14.60;7.97;;;;;;;;;;4398097;32;66247;-63
2022/09/17 01:48:37;;;;;;;13.23;7.80;;;;;;;;;;4397755;32;66853;-63
2022/09/17 01:51:26;;;;;;;14.93;8.68;;;;;;;;;;4387128;32;59166;-63
2022/09/17 01:54:17;;;;;;;14.87;8.43;;;;;;;;;;4375819;32;71176;-64
2022/09/17 01:57:13;;;;;;;15.27;8.23;;;;;;;;;;4386003;32;70089;-63
2022/09/17 02:00:07;;;;;;;15.75;8.75;;;;;;;;;;4397155;32;67629;-62
2022/09/17 02:03:20;;;;;;;15.50;8.20;;;;;;;;;;4376780;32;71904;-63
2022/09/17 02:06:11;;;;;;;16.20;8.35;;;;;;;;;;4386124;32;70563;-63
2022/09/17 02:09:04;;;;;;;15.07;8.00;;;;;;;;;;4398128;32;68641;-62
2022/09/17 02:11:57;;;;;;;17.27;8.02;;;;;;;;;;4397612;32;66626;-63
2022/09/17 02:14:49;;;;;;;16.25;8.82;;;;;;;;;;4396469;32;71535;-63
2022/09/17 02:17:44;;;;;;;17.27;8.57;;;;;;;;;;4396971;32;65800;-64
2022/09/17 02:20:45;;;;;;;20.90;9.88;;;;;;;;;;4386523;32;66824;-63
2022/09/17 02:23:36;;;;;;;17.83;8.50;;;;;;;;;;4387630;32;58995;-63
2022/09/17 02:26:25;;;;;;;14.93;8.32;;;;;;;;;;4397793;32;70566;-63
2022/09/17 02:29:32;;;;;;;14.65;7.50;;;;;;;;;;4398378;32;68253;-63
2022/09/17 02:32:19;;;;;;;15.05;8.05;;;;;;;;;;4376425;32;66665;-63
2022/09/17 02:35:06;;;;;;;19.00;9.07;;;;;;;;;;4392522;32;60460;-64
2022/09/17 02:37:53;;;;;;;15.13;8.07;;;;;;;;;;4397065;32;71186;-63
2022/09/17 02:40:49;;;;;;;16.60;8.05;;;;;;;;;;4385867;32;68208;-63
2022/09/17 02:44:11;;;;;;;18.02;8.43;;;;;;;;;;4385674;32;67381;-63
2022/09/17 02:47:14;;;;;;;17.58;9.18;;;;;;;;;;4386380;32;71872;-63
2022/09/17 02:50:27;;;;;;;18.42;9.98;;;;;;;;;;4396589;32;66181;-63
2022/09/17 02:53:37;;;;;;;15.15;8.60;;;;;;;;;;4396455;32;67417;-64
2022/09/17 02:56:43;;;;;;;16.25;8.55;;;;;;;;;;4375449;32;60340;-63
2022/09/17 02:59:46;;;;;;;18.08;9.38;;;;;;;;;;4396308;32;71519;-63
2022/09/17 03:02:42;;;;;;;15.38;8.40;;;;;;;;;;4397116;32;65797;-63
2022/09/17 03:05:29;;;;;;;17.00;8.93;;;;;;;;;;4388428;32;67727;-63
2022/09/17 03:08:20;;;;;;;17.45;8.15;;;;;;;;;;4377809;32;59939;-63
2022/09/17 03:11:09;;;;;;;16.80;8.98;;;;;;;;;;4388439;32;69621;-64
2022/09/17 03:13:57;;;;;;;16.60;9.40;;;;;;;;;;4388241;32;69552;-63
2022/09/17 03:16:44;;;;;;;16.02;8.90;;;;;;;;;;4387711;32;66788;-62
2022/09/17 03:19:30;;;;;;;17.55;8.32;;;;;;;;;;4399248;32;71631;-63
2022/09/17 03:22:17;;;;;;;17.42;9.30;;;;;;;;;;4377080;32;71311;-63
2022/09/17 03:25:04;;;;;;;14.55;7.78;;;;;;;;;;4376703;32;69664;-64
2022/09/17 03:27:51;;;;;;;18.90;10.30;;;;;;;;;;4377472;32;68840;-63
2022/09/17 03:30:38;;;;;;;18.23;9.57;;;;;;;;;;4372998;32;71464;-62
2022/09/17 03:33:24;;;;;;;16.77;8.48;;;;;;;;;;4373368;32;64887;-62
2022/09/17 03:36:11;;;;;;;15.43;8.00;;;;;;;;;;4383948;32;67019;-62
2022/09/17 03:38:58;;;;;;;13.95;8.07;;;;;;;;;;4373103;32;59239;-62
2022/09/17 03:41:44;;;;;;;14.10;7.75;;;;;;;;;;4362165;32;70781;-63
2022/09/17 03:44:31;;;;;;;15.40;7.80;;;;;;;;;;4383221;32;69479;-63
2022/09/17 03:47:17;;;;;;;11.40;6.87;;;;;;;;;;4372776;32;68072;-63
2022/09/17 03:50:06;;;;;;;12.05;6.97;;;;;;;;;;4373258;32;60106;-63
2022/09/17 03:52:52;;;;;;;12.45;7.03;;;;;;;;;;4383032;32;70910;-64
2022/09/17 03:55:39;;;;;;;13.68;6.97;;;;;;;;;;4372602;32;69253;-63
2022/09/17 03:58:26;;;;;;;10.80;6.68;;;;;;;;;;4372496;32;67510;-63
2022/09/17 04:01:13;;;;;;;11.43;7.10;;;;;;;;;;4372429;32;71706;-63
2022/09/17 04:04:00;;;;;;;10.23;5.65;;;;;;;;;;4372829;32;66008;-63
2022/09/17 04:06:46;;;;;;;12.85;7.15;;;;;;;;;;4372402;32;68188;-62
2022/09/17 04:09:33;;;;;;;11.18;5.57;;;;;;;;;;4371888;32;60977;-62
2022/09/17 04:12:20;;;;;;;9.55;5.95;;;;;;;;;;4372299;32;71639;-64
2022/09/17 04:15:07;;;;;;;9.35;6.00;;;;;;;;;;4371995;32;64982;-64
2022/09/17 04:17:58;;;;;;;8.45;4.97;;;;;;;;;;4382854;32;67824;-62
2022/09/17 04:20:45;;;;;;;9.27;5.30;;;;;;;;;;4372706;32;59154;-63
2022/09/17 04:23:31;;;;;;;7.18;4.93;;;;;;;;;;4382990;32;70311;-63
2022/09/17 04:26:18;;;;;;;8.18;5.10;;;;;;;;;;4372298;32;69459;-62
2022/09/17 04:29:05;;;;;;;9.35;4.78;;;;;;;;;;4372234;32;66642;-63
2022/09/17 04:31:52;;;;;;;7.80;5.05;;;;;;;;;;4372086;32;71693;-63
2022/09/17 04:34:39;;;;;;;6.25;4.37;;;;;;;;;;4372564;32;64624;-63
2022/09/17 04:37:25;;;;;;;;;;;;;;;;;;4362013;32;69244;-63
2022/09/17 04:40:12;;;;;;;7.07;4.50;;;;;;;;;;4394362;32;67387;-63
2022/09/17 04:43:01;;;;;;;6.70;4.20;;;;;;;;;;4371676;32;71490;-64
2022/09/17 04:45:49;;;;;;;6.20;4.20;;;;;;;;;;4383980;32;65999;-64
2022/09/17 04:48:36;;;;;;;5.62;4.05;;;;;;;;;;4372353;32;68167;-62
2022/09/17 04:51:22;;;;;;;5.95;4.18;;;;;;;;;;4373170;32;60484;-64
2022/09/17 04:54:10;;;;;;;5.97;3.65;;;;;;;;;;4383499;32;70243;-63
2022/09/17 04:56:56;;;;;;;6.95;4.07;;;;;;;;;;4371815;32;69057;-64
2022/09/17 04:59:43;;;;;;;5.78;3.50;;;;;;;;;;4382489;32;67613;-62
2022/09/17 05:02:30;;;;;;;4.43;2.92;;;;;;;;;;4372122;32;59163;-63
2022/09/17 05:05:18;;;;;;;5.05;3.15;;;;;;;;;;4361689;32;69960;-63
2022/09/17 05:08:07;;;;;;;6.37;3.30;;;;;;;;;;4360573;32;69905;-63
2022/09/17 05:10:54;;;;;;;4.12;3.05;;;;;;;;;;4383617;32;66565;-63
2022/09/17 05:13:40;;;;;;;4.40;2.95;;;;;;;;;;4371877;32;70848;-63
2022/09/17 05:16:26;;;;;;;4.55;2.83;;;;;;;;;;4381950;32;65884;-63
2022/09/17 05:19:13;;;;;;;4.47;2.92;;;;;;;;;;4360882;32;67626;-63
2022/09/17 05:21:59;;;;;;;3.85;2.62;;;;;;;;;;4382516;32;60065;-64
2022/09/17 05:24:46;;;;;;;5.60;3.20;;;;;;;;;;4371222;32;69811;-62
2022/09/17 05:27:33;;;;;;;4.72;3.33;;;;;;;;;;4381737;32;65916;-62
2022/09/17 05:30:20;;;;;;;5.28;3.67;;;;;;;;;;4371402;32;66937;-63
2022/09/17 05:33:07;;;;;;;5.75;3.75;;;;;;;;;;4383540;32;60385;-63
2022/09/17 05:35:53;;;;;;;5.97;3.67;;;;;;;;;;4371196;32;69426;-62
2022/09/17 05:38:40;;;;;;;5.95;3.65;;;;;;;;;;4370695;32;69885;-62
2022/09/17 05:41:26;;;;;;;6.87;4.55;;;;;;;;;;4381959;32;67597;-62
2022/09/17 05:44:13;;;;;;;5.65;3.53;;;;;;;;;;4360525;32;71783;-62
2022/09/17 05:47:00;;;;;;;5.10;3.42;;;;;;;;;;4371673;32;65898;-62
2022/09/17 05:49:47;;;;;;;5.97;3.60;;;;;;;;;;4381861;32;68471;-61
2022/09/17 05:52:33;;;;;;;5.70;3.67;;;;;;;;;;4360690;32;67564;-62
2022/09/17 05:55:21;;;;;;;6.93;3.47;;;;;;;;;;4370994;32;71614;-62
2022/09/17 05:58:11;;;;;;;4.80;3.22;;;;;;;;;;4360792;32;64954;-60
2022/09/17 06:01:01;;;;;;;7.05;3.67;;;;;;;;;;4371433;32;68102;-59
2022/09/17 06:03:48;;;;;;;7.75;3.62;;;;;;;;;;4371684;32;59034;-59
2022/09/17 06:06:36;;;;;;;5.18;3.20;;;;;;;;;;4371139;32;69645;-59
2022/09/17 06:09:23;;;;;;;5.05;3.20;;;;;;;;;;4370923;32;69270;-60
2022/09/17 06:12:10;;;;;;;4.28;2.90;;;;;;;;;;4359488;32;68147;-60
2022/09/17 06:14:57;;;;;;;4.22;2.90;;;;;;;;;;4360626;32;60153;-61
2022/09/17 06:17:43;;;;;;;4.07;3.00;;;;;;;;;;4370358;32;70259;-58
2022/09/17 06:20:30;;;;;;;;;;;;;;;;;;4360574;32;69799;-59
2022/09/17 06:23:16;;;;;;;5.28;3.15;;;;;;;;;;4370751;32;67497;-59
2022/09/17 06:26:05;;;;;;;4.68;3.20;;;;;;;;;;4369786;32;72327;-59
2022/09/17 06:28:51;;;;;;;5.62;3.28;;;;;;;;;;4381508;32;65920;-60
2022/09/17 06:31:38;;;;;;;;;;;;;;;;;;4360596;32;67981;-60
2022/09/17 06:34:24;;;;;;;4.03;2.87;;;;;;;;;;4380869;32;60648;-60
2022/09/17 06:37:11;;;;;;;5.10;3.42;;;;;;;;;;4381420;32;70441;-60
2022/09/17 06:39:58;;;;;;;5.60;3.25;;;;;;;;;;4373304;32;66165;-60
2022/09/17 06:42:45;;;;;;;5.32;3.47;;;;;;;;;;4383796;32;68103;-61
2022/09/17 06:45:31;;;;;;;5.85;3.47;;;;;;;;;;4384250;32;59135;-59
2022/09/17 06:48:19;;;;;;;6.32;3.53;;;;;;;;;;4373369;32;70499;-60
2022/09/17 06:51:07;;;;;;;6.10;3.60;;;;;;;;;;4373025;32;69370;-59
2022/09/17 06:53:54;;;;;;;4.72;3.03;;;;;;;;;;4373106;32;67687;-60
2022/09/17 06:56:41;;;;;;;6.50;3.65;;;;;;;;;;4362550;32;71380;-60
2022/09/17 06:59:27;;;;;;;5.87;3.12;;;;;;;;;;4373058;32;66096;-61
2022/09/17 07:02:14;;;;;;;5.15;3.62;;;;;;;;;;4385225;32;68262;-59
2022/09/17 07:05:02;;;;;;;5.18;3.40;;;;;;;;;;4384501;32;67722;-59
2022/09/17 07:07:48;;;;;;;4.53;2.95;;;;;;;;;;4361611;32;72593;-60
2022/09/17 07:10:35;;;;;;;;;;;;;;;;;;4362843;32;65005;-60
2022/09/17 07:13:21;;;;;;;4.97;3.42;;;;;;;;;;4372821;32;68919;-60
2022/09/17 07:16:10;;;;;;;4.70;3.20;;;;;;;;;;4383572;32;59115;-63
2022/09/17 07:18:56;;;;;;;4.93;3.50;;;;;;;;;;4362661;32;70528;-61
2022/09/17 07:21:43;;;;;;;6.28;3.40;;;;;;;;;;4373363;32;68331;-59
2022/09/17 07:24:29;;;;;;;;;;;;;;;;;;4385121;32;66859;-59
2022/09/17 07:27:16;;;;;;;5.45;3.35;;;;;;;;;;4385204;32;71747;-61
2022/09/17 07:30:03;;;;;;;5.07;3.83;;;;;;;;;;4384800;32;70609;-61
2022/09/17 07:32:50;;;;;;;4.78;3.22;;;;;;;;;;4384116;32;69489;-60
2022/09/17 07:35:36;;;;;;;4.65;3.47;;;;;;;;;;4362602;32;67646;-59
2022/09/17 07:38:24;;;;;;;5.70;3.62;;;;;;;;;;4372517;32;70827;-59
2022/09/17 07:41:13;;;;;;;5.12;3.67;;;;;;;;;;4383142;32;66146;-59
2022/09/17 07:44:01;;;;;;;5.22;3.83;;;;;;;;;;4383235;32;68310;-60
2022/09/17 07:46:47;;;;;;;6.10;3.70;;;;;;;;;;4372743;32;59229;-60
2022/09/17 07:49:34;;;;;;;;;;;;;;;;;;4361853;32;70615;-60
2022/09/17 07:52:20;;;;;;;6.47;3.42;;;;;;;;;;4384557;32;68520;-59
2022/09/17 07:55:07;;;;;;;;;;;;;;;;;;4383457;32;67766;-60
2022/09/17 07:57:54;;;;;;;5.95;3.50;;;;;;;;;;4372138;32;59344;-59
2022/09/17 08:00:40;;;;;;;;;;;;;;;;;;4362416;32;69461;-59
2022/09/17 08:03:27;;;;;;;5.40;3.40;;;;;;;;;;4383039;32;68790;-60
2022/09/17 08:06:14;;;;;;;;;;;;;;;;;;4383207;32;66859;-60
2022/09/17 08:09:01;;;;;;;5.35;3.42;;;;;;;;;;4372422;32;72038;-59
2022/09/17 08:11:48;;;;;;;4.70;3.50;;;;;;;;;;4361985;32;65971;-61
2022/09/17 08:14:35;;;;;;;5.00;3.30;;;;;;;;;;4372478;32;68094;-60
2022/09/17 08:17:22;;;;;;;4.72;3.25;;;;;;;;;;4372114;32;67645;-59
2022/09/17 08:20:08;;;;;;;;;;;;;;;;;;4361854;32;71792;-60
2022/09/17 08:22:59;;;;;;;5.30;3.37;;;;;;;;;;4393673;32;66178;-59
2022/09/17 08:25:54;;;;;;;5.05;3.33;;;;;;;;;;4384203;32;67936;-59
2022/09/17 08:28:46;;;;;;;4.55;3.15;;;;;;;;;;4373315;32;60286;-61
2022/09/17 08:31:33;;;;;;;4.65;3.30;;;;;;;;;;4373127;32;69459;-60
2022/09/17 08:34:19;;;;;;;4.97;3.33;;;;;;;;;;4383563;32;69315;-60
2022/09/17 08:37:06;;;;;;;;;;;;;;;;;;4383310;32;67623;-60
2022/09/17 08:39:52;;;;;;;4.65;3.10;;;;;;;;;;4383188;32;72133;-60
2022/09/17 08:42:40;;;;;;;;;;;;;;;;;;4372272;32;69582;-61
2022/09/17 08:45:27;;;;;;;;;;;;;;;;;;4372362;32;69528;-63
2022/09/17 08:48:14;;;;;;;4.40;3.15;;;;;;;;;;4393510;32;66777;-61
2022/09/17 08:51:06;;;;;;;4.37;2.90;;;;;;;;;;4360742;32;70554;-62
2022/09/17 08:54:12;;;;;;;3.47;2.60;;;;;;;;;;4361354;32;64858;-61
2022/09/17 08:57:12;;;;;;;4.55;3.10;;;;;;;;;;4354872;32;68252;-60
2022/09/17 09:00:13;;;;;;;4.57;3.12;;;;;;;;;;4359853;32;60742;-62
2022/09/17 09:03:23;;;;;;;4.78;3.05;;;;;;;;;;4371063;32;71196;-60
2022/09/17 09:06:11;;;;;;;5.25;3.65;;;;;;;;;;4371876;32;68331;-60
2022/09/17 09:09:07;;;;;;;4.47;3.47;;;;;;;;;;4371653;32;67887;-59
2022/09/17 09:12:01;;;;;;;6.53;3.75;;;;;;;;;;4384014;32;59206;-59
2022/09/17 09:15:06;;;;;;;5.25;3.58;;;;;;;;;;4373986;32;70888;-59
2022/09/17 09:17:53;;;;;;;5.78;3.83;;;;;;;;;;4374433;32;69089;-60
2022/09/17 09:20:45;;;;;;;5.80;3.97;;;;;;;;;;4371466;32;67896;-61
2022/09/17 09:23:35;;;;;;;5.37;3.67;;;;;;;;;;4381787;32;71507;-59
2022/09/17 09:26:31;;;;;;;6.37;3.80;;;;;;;;;;4382142;32;65037;-60
2022/09/17 09:29:35;;;;;;;5.50;3.70;;;;;;;;;;4381926;32;67385;-60
2022/09/17 09:32:42;;;;;;;5.87;3.55;;;;;;;;;;4371493;32;60258;-59
2022/09/17 09:35:32;;;;;;;5.93;3.73;;;;;;;;;;4370728;32;71798;-59
2022/09/17 09:38:49;;;;;;;5.68;3.85;;;;;;;;;;4371201;32;64936;-60
2022/09/17 09:41:45;;;;;;;7.05;4.62;;;;;;;;;;4381608;32;68247;-61
2022/09/17 09:44:31;;;;;;;6.78;4.43;;;;;;;;;;4382235;32;59318;-60
2022/09/17 09:47:38;;;;;;;;;;;;;;;;;;4372565;32;70402;-60
2022/09/17 09:50:39;;;;;;;6.80;4.32;;;;;;;;;;4382610;32;69305;-61
2022/09/17 09:53:52;;;;;;;6.15;4.22;;;;;;;;;;4372193;32;67486;-61
2022/09/17 09:56:51;;;;;;;7.53;5.00;;;;;;;;;;4370848;32;69870;-59
2022/09/17 09:59:40;;;;;;;7.70;4.70;;;;;;;;;;4361604;32;67422;-60
2022/09/17 10:02:27;;;;;;;8.45;5.12;;;;;;;;;;4371547;32;69540;-60
2022/09/17 10:05:14;;;;;;;6.70;4.53;;;;;;;;;;4371200;32;66724;-59
2022/09/17 10:08:09;;;;;;;8.25;5.05;;;;;;;;;;4381576;32;71545;-60
2022/09/17 10:11:03;;;;;;;10.20;5.03;;;;;;;;;;4370956;32;65971;-59
2022/09/17 10:13:49;;;;;;;9.05;5.30;;;;;;;;;;4381179;32;68712;-60
2022/09/17 10:16:36;;;;;;;8.25;4.65;;;;;;;;;;4360043;32;60660;-60
2022/09/17 10:19:24;;;;;;;7.32;4.55;;;;;;;;;;4370005;32;67975;-60
2022/09/17 10:22:28;;;;;;;9.02;5.25;;;;;;;;;;4381672;32;69590;-59
2022/09/17 10:25:31;;;;;;;9.05;5.32;;;;;;;;;;4381382;32;67704;-59
2022/09/17 10:28:31;;;;;;;11.00;5.72;;;;;;;;;;4371057;32;59871;-61
2022/09/17 10:31:18;;;;;;;8.18;5.28;;;;;;;;;;4370886;32;69665;-61
2022/09/17 10:34:10;;;;;;;8.98;5.20;;;;;;;;;;4359882;32;70446;-59
2022/09/17 10:36:57;;;;;;;8.55;5.10;;;;;;;;;;4381352;32;66373;-60
2022/09/17 10:39:47;;;;;;;10.88;5.82;;;;;;;;;;4370720;32;70794;-60
2022/09/17 10:42:33;;;;;;;11.70;6.43;;;;;;;;;;4371015;32;65712;-61
2022/09/17 10:45:25;;;;;;;10.98;6.30;;;;;;;;;;4370966;32;67058;-60
2022/09/17 10:48:17;;;;;;;10.73;5.90;;;;;;;;;;4369893;32;59873;-60
2022/09/17 10:51:07;;;;;;;10.55;6.72;;;;;;;;;;4370691;32;71752;-60
2022/09/17 10:54:18;;;;;;;9.88;6.37;;;;;;;;;;4370906;32;66010;-60
2022/09/17 10:57:07;;;;;;;8.65;5.50;;;;;;;;;;4382411;32;67063;-59
2022/09/17 11:00:22;;;;;;;7.68;5.10;;;;;;;;;;4360343;32;59276;-59
2022/09/17 11:03:35;;;;;;;9.68;5.40;;;;;;;;;;4377278;32;69304;-62
2022/09/17 11:06:59;;;;;;;8.25;4.85;;;;;;;;;;4370814;32;69307;-61
2022/09/17 11:10:15;;;;;;;8.43;4.43;;;;;;;;;;4382682;32;66787;-59
2022/09/17 11:13:05;;;;;;;7.62;4.47;;;;;;;;;;4370606;32;71712;-60
2022/09/17 11:16:18;;;;;;;7.37;4.28;;;;;;;;;;4370305;32;64986;-59
2022/09/17 11:19:23;;;;;;;7.90;4.60;;;;;;;;;;4359765;32;68516;-61
2022/09/17 11:22:54;;;;;;;6.55;4.55;;;;;;;;;;4382203;32;67710;-61
2022/09/17 11:26:04;;;;;;;8.00;4.62;;;;;;;;;;4384679;32;70895;-60
2022/09/17 11:28:59;;;;;;;8.57;5.05;;;;;;;;;;4384457;32;65796;-60
2022/09/17 11:32:08;;;;;;;7.57;4.60;;;;;;;;;;4373626;32;67641;-60
2022/09/17 11:34:59;;;;;;;8.25;4.80;;;;;;;;;;4385033;32;59123;-59
2022/09/17 11:37:48;;;;;;;9.57;5.75;;;;;;;;;;4362163;32;70619;-60
2022/09/17 11:40:49;;;;;;;8.38;5.10;;;;;;;;;;4371893;32;69908;-59
2022/09/17 11:43:39;;;;;;;7.03;4.07;;;;;;;;;;4372683;32;66774;-59
2022/09/17 11:46:34;;;;;;;8.48;4.68;;;;;;;;;;4383681;32;60017;-60
2022/09/17 11:49:36;;;;;;;8.80;5.07;;;;;;;;;;4372562;32;70602;-60
2022/09/17 11:52:56;;;;;;;7.95;4.90;;;;;;;;;;4372621;32;69208;-60
2022/09/17 11:56:05;;;;;;;8.70;4.85;;;;;;;;;;4370328;32;67741;-60
2022/09/17 11:59:11;;;;;;;7.47;4.32;;;;;;;;;;4372329;32;70919;-60
2022/09/17 12:02:08;;;;;;;6.70;4.60;;;;;;;;;;4366091;32;65740;-59
2022/09/17 12:05:03;;;;;;;6.45;3.95;;;;;;;;;;4383166;32;67906;-60
2022/09/17 12:08:00;;;;;;;6.57;4.20;;;;;;;;;;4372564;32;60221;-60
2022/09/17 12:11:04;;;;;;;8.45;5.45;;;;;;;;;;4382806;32;70533;-60
2022/09/17 12:14:02;;;;;;;12.15;4.95;;;;;;;;;;4384293;32;65189;-62
2022/09/17 12:16:56;;;;;;;7.45;4.57;;;;;;;;;;4371268;32;67698;-59
2022/09/17 12:19:46;;;;;;;8.45;4.90;;;;;;;;;;4383424;32;59231;-60
2022/09/17 12:22:37;;;;;;;7.35;4.53;;;;;;;;;;4372875;32;70506;-61
2022/09/17 12:25:25;;;;;;;7.65;4.75;;;;;;;;;;4372564;32;70376;-59
2022/09/17 12:28:22;;;;;;;7.05;4.57;;;;;;;;;;4383396;32;67894;-59
2022/09/17 12:31:44;;;;;;;9.85;5.43;;;;;;;;;;4383113;32;71398;-59
2022/09/17 12:35:04;;;;;;;8.70;5.70;;;;;;;;;;4384609;32;65845;-60
2022/09/17 12:38:15;;;;;;;7.55;4.65;;;;;;;;;;4384044;32;67742;-59
2022/09/17 12:41:33;;;;;;;9.88;5.47;;;;;;;;;;4382595;32;66699;-60
2022/09/17 12:44:41;;;;;;;8.80;5.07;;;;;;;;;;4371767;32;71980;-60
2022/09/17 12:47:59;;;;;;;9.80;5.35;;;;;;;;;;4382418;32;66271;-60
2022/09/17 12:51:07;;;;;;;7.95;5.28;;;;;;;;;;4350048;32;69089;-60
2022/09/17 12:54:20;;;;;;;9.38;5.65;;;;;;;;;;4382350;32;59918;-60
2022/09/17 12:57:22;;;;;;;7.78;5.28;;;;;;;;;;4384037;32;70644;-60
2022/09/17 13:00:14;;;;;;;9.20;5.62;;;;;;;;;;4371651;32;68233;-60
2022/09/17 13:03:32;;;;;;;11.02;5.82;;;;;;;;;;4371029;32;68240;-60
2022/09/17 13:06:21;;;;;;;8.80;5.07;;;;;;;;;;4371879;32;59876;-60
2022/09/17 13:09:14;;;;;;;8.13;4.95;;;;;;;;;;4371751;32;70312;-59
2022/09/17 13:12:05;;;;;;;10.10;6.28;;;;;;;;;;4371100;32;69916;-60
2022/09/17 13:15:04;;;;;;;11.02;6.07;;;;;;;;;;4371820;32;66642;-59
2022/09/17 13:18:30;;;;;;;9.95;5.93;;;;;;;;;;4383443;32;71716;-60
2022/09/17 13:21:38;;;;;;;10.23;5.45;;;;;;;;;;4371268;32;66555;-61
2022/09/17 13:24:28;;;;;;;8.00;4.97;;;;;;;;;;4382005;32;67907;-59
2022/09/17 13:28:51;;;;;;;9.25;5.60;;;;;;;;;;3801323;37;43804;-60
2022/09/17 13:31:37;;;;;;;9.18;5.12;;;;;;;;;;4379840;32;59884;-59
2022/09/17 13:34:29;;;;;;;8.35;5.22;;;;;;;;;;4368056;32;71338;-60
2022/09/17 13:37:21;;;;;;;8.70;5.22;;;;;;;;;;4379441;32;69447;-60
2022/09/17 13:40:34;;;;;;;9.57;5.70;;;;;;;;;;4369003;32;66762;-60
2022/09/17 13:43:25;;;;;;;9.73;5.32;;;;;;;;;;4380256;32;71631;-60
2022/09/17 13:46:15;;;;;;;8.80;5.57;;;;;;;;;;4370489;32;65005;-60
2022/09/17 13:49:05;;;;;;;9.20;5.93;;;;;;;;;;4368464;32;67340;-60
2022/09/17 13:51:52;;;;;;;9.35;5.57;;;;;;;;;;4346857;32;60857;-59
2022/09/17 13:54:39;;;;;;;11.10;5.47;;;;;;;;;;4368261;32;71858;-60
2022/09/17 13:57:26;;;;;;;;;;;;;;;;;;4368723;32;66066;-59
2022/09/17 14:00:53;;;;;;;9.33;5.50;;;;;;;;;;4379167;32;67770;-60
2022/09/17 14:03:40;;;;;;;9.32;5.62;;;;;;;;;;4368569;32;59246;-60
2022/09/17 14:06:26;;;;;;;8.40;5.62;;;;;;;;;;4356630;32;71207;-61
2022/09/17 14:09:44;;;;;;;;;;;;;;;;;;4357147;32;69746;-60
2022/09/17 14:12:40;;;;;;;8.73;5.15;;;;;;;;;;4357793;32;67859;-60
2022/09/17 14:15:36;;;;;;;9.70;5.73;;;;;;;;;;4379710;32;71717;-60
2022/09/17 14:18:28;;;;;;;8.80;4.90;;;;;;;;;;4379053;32;66146;-60
2022/09/17 14:21:29;;;;;;;8.18;5.07;;;;;;;;;;4378060;32;69927;-59
2022/09/17 14:24:31;;;;;;;7.35;5.12;;;;;;;;;;4346478;32;67250;-59
2022/09/17 14:27:32;;;;;;;9.88;5.15;;;;;;;;;;4377380;32;71335;-61
2022/09/17 14:30:21;;;;;;;8.65;5.18;;;;;;;;;;4380045;32;65068;-60
2022/09/17 14:33:13;;;;;;;9.98;5.20;;;;;;;;;;4367899;32;67775;-59
2022/09/17 14:36:14;;;;;;;11.05;5.78;;;;;;;;;;4368075;32;60294;-60
2022/09/17 14:39:01;;;;;;;8.70;5.22;;;;;;;;;;4351639;32;70524;-60
2022/09/17 14:41:48;;;;;;;8.38;5.62;;;;;;;;;;4357706;32;69230;-60
2022/09/17 14:44:35;;;;;;;9.20;5.72;;;;;;;;;;4358002;32;67643;-60
2022/09/17 14:47:22;;;;;;;9.80;5.65;;;;;;;;;;4347656;32;59076;-60
2022/09/17 14:50:26;;;;;;;8.50;5.18;;;;;;;;;;4369419;32;69807;-61
2022/09/17 14:53:17;;;;;;;8.63;5.07;;;;;;;;;;4369300;32;69335;-60
2022/09/17 14:56:06;;;;;;;10.98;5.85;;;;;;;;;;4359152;32;67830;-60
2022/09/17 14:58:54;;;;;;;9.18;5.57;;;;;;;;;;4358546;32;72024;-60
2022/09/17 15:01:46;;;;;;;9.05;5.22;;;;;;;;;;4368927;32;65668;-59
2022/09/17 15:04:33;;;;;;;9.07;5.78;;;;;;;;;;4368624;32;66648;-60
2022/09/17 15:07:21;;;;;;;8.38;5.15;;;;;;;;;;4358037;32;59021;-59
2022/09/17 15:10:12;;;;;;;9.82;5.47;;;;;;;;;;4346431;32;71678;-60
2022/09/17 15:12:59;;;;;;;9.98;5.53;;;;;;;;;;4357975;32;66256;-59
2022/09/17 15:15:58;;;;;;;9.45;4.93;;;;;;;;;;4357893;32;67682;-58
2022/09/17 15:18:57;;;;;;;8.93;5.50;;;;;;;;;;4358123;32;59195;-62
2022/09/17 15:21:44;;;;;;;9.88;5.53;;;;;;;;;;4357539;32;70315;-60
2022/09/17 15:24:49;;;;;;;9.07;5.62;;;;;;;;;;4357829;32;69305;-59
2022/09/17 15:27:41;;;;;;;8.02;4.18;;;;;;;;;;4346764;32;67671;-61
2022/09/17 15:30:28;;;;;;;6.32;4.30;;;;;;;;;;4356713;32;71382;-59
2022/09/17 15:33:15;;;;;;;7.15;4.87;;;;;;;;;;3868945;36;43823;-59
2022/09/17 15:36:08;;;;;;;8.60;5.35;;;;;;;;;;4404029;32;59047;-59
2022/09/17 15:38:55;;;;;;;8.52;5.32;;;;;;;;;;4403507;32;70419;-60
2022/09/17 15:41:41;;;;;;;9.52;5.60;;;;;;;;;;4414373;32;69475;-60
2022/09/17 15:44:28;;;;;;;10.30;5.97;;;;;;;;;;4398845;32;66461;-60
2022/09/17 15:47:44;;;;;;;11.63;6.95;;;;;;;;;;4411055;32;71893;-59
2022/09/17 15:50:32;;;;;;;10.43;6.55;;;;;;;;;;4411013;32;66032;-60
2022/09/17 15:53:25;;;;;;;11.23;6.60;;;;;;;;;;4399064;32;67202;-60
2022/09/17 15:56:15;;;;;;;11.50;7.32;;;;;;;;;;4393614;32;60259;-60
2022/09/17 15:59:24;;;;;;;11.23;6.95;;;;;;;;;;4375082;32;71909;-59
2022/09/17 16:02:26;;;;;;;12.18;7.65;;;;;;;;;;4385354;32;67110;-60
2022/09/17 16:05:18;;;;;;;12.60;6.85;;;;;;;;;;4388250;32;67394;-60
2022/09/17 16:08:19;;;;;;;11.05;6.85;;;;;;;;;;4398872;32;59950;-60
2022/09/17 16:11:07;;;;;;;12.30;7.35;;;;;;;;;;4409448;32;69398;-61
2022/09/17 16:13:55;;;;;;;11.57;6.85;;;;;;;;;;4388039;32;68394;-60
2022/09/17 16:16:42;;;;;;;12.93;6.95;;;;;;;;;;4398812;32;67695;-60
2022/09/17 16:19:28;;;;;;;13.48;7.07;;;;;;;;;;4377072;32;70636;-59
2022/09/17 16:22:15;;;;;;;11.60;6.87;;;;;;;;;;4409666;32;65869;-59
2022/09/17 16:25:02;;;;;;;11.45;6.68;;;;;;;;;;4398627;32;69487;-59
2022/09/17 16:27:53;;;;;;;11.48;7.45;;;;;;;;;;4387900;32;66832;-59
2022/09/17 16:30:43;;;;;;;10.95;6.82;;;;;;;;;;4398195;32;70803;-61
2022/09/17 16:33:30;;;;;;;11.95;6.95;;;;;;;;;;4398509;32;64899;-59
2022/09/17 16:36:17;;;;;;;12.30;7.10;;;;;;;;;;4398340;32;66714;-61
2022/09/17 16:39:04;;;;;;;10.57;6.62;;;;;;;;;;4387887;32;59212;-60
2022/09/17 16:41:55;;;;;;;12.23;7.35;;;;;;;;;;4398055;32;70804;-60
2022/09/17 16:44:42;;;;;;;12.80;6.47;;;;;;;;;;4387592;32;69552;-59
2022/09/17 16:47:33;;;;;;;9.75;6.28;;;;;;;;;;4388207;32;67621;-60
2022/09/17 16:50:20;;;;;;;10.30;6.65;;;;;;;;;;4364210;32;61266;-60
2022/09/17 16:53:08;;;;;;;10.13;6.57;;;;;;;;;;4377111;32;70795;-61
2022/09/17 16:55:54;;;;;;;8.95;6.00;;;;;;;;;;4387977;32;68930;-60
2022/09/17 16:58:41;;;;;;;11.20;6.60;;;;;;;;;;4388085;32;67619;-59
2022/09/17 17:01:27;;;;;;;;;;;;;;;;;;4388106;32;71882;-60
2022/09/17 17:04:14;;;;;;;11.30;6.65;;;;;;;;;;4388528;32;65121;-59
2022/09/17 17:07:01;;;;;;;11.57;7.57;;;;;;;;;;4364120;32;68103;-60
2022/09/17 17:09:47;;;;;;;10.23;6.57;;;;;;;;;;4387791;32;59187;-60
2022/09/17 17:12:35;;;;;;;12.85;6.65;;;;;;;;;;4398305;32;70521;-59
2022/09/17 17:15:22;;;;;;;9.65;6.53;;;;;;;;;;4388331;32;65772;-59
2022/09/17 17:18:09;;;;;;;11.95;6.55;;;;;;;;;;4377187;32;66569;-60